createdAt,value
2023-01-21T05:16:04.909Z,59.86
2023-01-21T05:18:32.681Z,60.09
2023-01-21T05:20:59.237Z,59.93
2023-01-21T05:23:25.711Z,59.56
2023-01-21T05:25:52.198Z,60.09
2023-01-21T05:28:18.671Z,59.70
2023-01-21T05:30:46.303Z,59.40
2023-01-21T05:33:13.295Z,59.92
2023-01-21T05:35:40.100Z,60.04
2023-01-21T05:38:06.545Z,59.80
2023-01-21T05:40:33.046Z,60.21
2023-01-21T05:42:59.639Z,60.03
2023-01-21T05:45:26.176Z,60.01
2023-01-21T05:47:52.726Z,59.18
2023-01-21T05:50:19.505Z,59.46
2023-01-21T05:52:45.998Z,59.38
2023-01-21T05:55:12.512Z,59.33
2023-01-21T05:57:39.101Z,58.86
2023-01-21T06:00:06.309Z,59.63
2023-01-21T06:02:32.837Z,59.18
2023-01-21T06:04:59.383Z,58.96
2023-01-21T06:07:25.981Z,59.82
2023-01-21T06:09:52.552Z,60.12
2023-01-21T06:12:19.006Z,60.27
2023-01-21T06:14:45.516Z,59.89
2023-01-21T06:17:13.290Z,59.45
2023-01-21T06:19:39.809Z,59.56
2023-01-21T06:22:06.420Z,60.10
2023-01-21T06:24:33.002Z,60.43
2023-01-21T06:26:59.460Z,59.76
2023-01-21T06:29:26.018Z,59.25
2023-01-21T06:31:52.658Z,59.56
2023-01-21T06:34:19.922Z,59.63
2023-01-21T06:36:46.434Z,59.85
2023-01-21T06:39:12.995Z,60.05
2023-01-21T06:41:39.861Z,59.42
2023-01-21T06:44:07.597Z,59.52
2023-01-21T06:46:34.311Z,60.03
2023-01-21T06:49:01.076Z,60.53
2023-01-21T06:51:27.537Z,60.40
2023-01-21T06:53:54.197Z,59.92
2023-01-21T06:56:22.118Z,59.77
2023-01-21T06:58:48.805Z,59.39
2023-01-21T07:01:15.430Z,60.07
2023-01-21T07:03:42.255Z,61.58
2023-01-21T07:06:10.180Z,62.17
2023-01-21T07:08:36.670Z,62.42
2023-01-21T07:11:05.341Z,61.39
2023-01-21T07:13:32.030Z,61.53
2023-01-21T07:16:00.832Z,61.66
2023-01-21T07:18:27.849Z,62.96
2023-01-21T07:20:54.934Z,63.03
2023-01-21T07:23:21.933Z,63.48
2023-01-21T07:25:48.573Z,64.02
2023-01-21T07:28:40.965Z,64.32
2023-01-21T07:31:07.586Z,64.24
2023-01-21T07:33:34.115Z,65.15
2023-01-21T07:36:00.793Z,64.86
2023-01-21T07:38:27.606Z,65.64
2023-01-21T07:40:54.410Z,65.31
2023-01-21T07:43:21.113Z,65.89
2023-01-21T07:45:47.945Z,65.46
2023-01-21T07:48:14.525Z,65.18
2023-01-21T07:50:41.038Z,65.19
2023-01-21T07:53:07.745Z,64.90
2023-01-21T07:55:34.226Z,64.68
2023-01-21T07:58:00.831Z,63.80
2023-01-21T08:00:42.708Z,63.56
2023-01-21T08:03:09.289Z,63.45
2023-01-21T08:05:35.782Z,64.31
2023-01-21T08:08:02.295Z,64.05
2023-01-21T08:10:28.816Z,63.75
2023-01-21T08:12:55.385Z,63.74
2023-01-21T08:15:21.915Z,64.07
2023-01-21T08:17:49.047Z,63.91
2023-01-21T08:20:15.598Z,63.61
2023-01-21T08:22:44.856Z,63.22
2023-01-21T08:25:11.837Z,63.51
2023-01-21T08:27:38.504Z,62.95
2023-01-21T08:30:05.527Z,63.51
2023-01-21T08:32:33.321Z,63.09
2023-01-21T08:34:59.909Z,62.95
2023-01-21T08:37:26.557Z,63.01
2023-01-21T08:39:53.020Z,63.35
2023-01-21T08:42:19.837Z,62.84
2023-01-21T08:44:46.897Z,62.75
2023-01-21T08:47:13.616Z,62.58
2023-01-21T08:50:35.233Z,62.54
2023-01-21T08:55:53.943Z,62.47
2023-01-21T08:58:20.522Z,62.43
2023-01-21T09:00:47.151Z,62.67
2023-01-21T09:03:16.983Z,62.02
2023-01-21T09:05:43.634Z,61.72
2023-01-21T09:08:16.258Z,61.78
2023-01-21T09:11:01.094Z,61.68
2023-01-21T09:13:35.646Z,61.74
2023-01-21T09:16:02.189Z,61.14
2023-01-21T09:18:28.876Z,61.04
2023-01-21T09:21:03.993Z,61.60
2023-01-21T09:23:36.489Z,61.56
2023-01-21T09:26:07.006Z,61.48
2023-01-21T09:28:38.706Z,61.28
2023-01-21T09:31:08.207Z,61.44
2023-01-21T09:33:43.426Z,61.53
2023-01-21T09:39:00.047Z,61.04
2023-01-21T09:41:40.219Z,60.91
2023-01-21T09:44:25.867Z,60.62
2023-01-21T09:47:03.610Z,60.34
2023-01-21T09:49:41.805Z,60.14
2023-01-21T09:52:35.891Z,60.72
2023-01-21T09:55:04.015Z,60.55
2023-01-21T09:57:49.006Z,60.00
2023-01-21T10:00:24.972Z,60.21
2023-01-21T10:02:59.267Z,60.53
2023-01-21T10:05:52.858Z,60.31
2023-01-21T10:09:05.193Z,59.37
2023-01-21T10:11:40.446Z,59.59
2023-01-21T10:14:22.578Z,59.45
2023-01-21T10:16:52.372Z,59.23
2023-01-21T10:19:24.557Z,58.01
2023-01-21T10:22:04.162Z,57.52
2023-01-21T10:24:38.823Z,57.88
2023-01-21T10:27:05.580Z,57.91
2023-01-21T10:29:36.348Z,57.26
2023-01-21T10:32:07.107Z,56.98
2023-01-21T10:34:43.653Z,57.22
2023-01-21T10:37:45.929Z,56.98
2023-01-21T10:40:48.655Z,57.18
2023-01-21T10:47:21.340Z,57.50
2023-01-21T10:50:08.563Z,57.99
2023-01-21T10:52:54.587Z,58.41
2023-01-21T10:55:33.210Z,59.17
2023-01-21T10:58:22.602Z,59.19
2023-01-21T11:00:59.455Z,59.81
2023-01-21T11:06:33.506Z,59.24
2023-01-21T11:09:03.823Z,59.50
2023-01-21T11:11:35.079Z,59.59
2023-01-21T11:14:14.431Z,59.98
2023-01-21T11:16:48.712Z,58.83
2023-01-21T11:19:16.862Z,59.78
2023-01-21T11:22:05.340Z,59.33
2023-01-21T11:24:52.861Z,59.94
2023-01-21T11:27:28.667Z,59.27
2023-01-21T11:29:55.467Z,59.13
2023-01-21T11:32:27.658Z,59.17
2023-01-21T11:35:15.844Z,59.21
2023-01-21T11:37:45.643Z,59.54
2023-01-21T11:40:25.786Z,59.90
2023-01-21T11:42:56.350Z,60.25
2023-01-21T11:45:36.309Z,59.50
2023-01-21T11:48:20.260Z,59.92
2023-01-21T11:50:53.222Z,59.29
2023-01-21T11:53:20.224Z,59.88
2023-01-21T11:55:51.223Z,60.05
2023-01-21T11:58:30.640Z,59.06
2023-01-21T12:01:01.902Z,59.65
2023-01-21T12:03:40.868Z,59.28
2023-01-21T12:06:08.063Z,59.24
2023-01-21T12:08:37.753Z,59.37
2023-01-21T12:11:07.715Z,59.25
2023-01-21T12:13:50.377Z,59.13
2023-01-21T12:16:23.367Z,58.74
2023-01-21T12:19:09.117Z,59.74
2023-01-21T12:22:11.565Z,59.10
2023-01-21T12:24:51.137Z,58.45
2023-01-21T12:27:42.802Z,58.86
2023-01-21T12:30:32.140Z,59.43
2023-01-21T12:33:12.114Z,59.13
2023-01-21T12:36:07.437Z,58.68
2023-01-21T12:38:41.218Z,58.93
2023-01-21T12:41:27.344Z,58.26
2023-01-21T12:44:02.227Z,58.58
2023-01-21T12:46:41.453Z,58.54
2023-01-21T12:49:19.119Z,58.48
2023-01-21T12:51:50.571Z,58.83
2023-01-21T12:54:27.715Z,58.15
2023-01-21T12:57:09.873Z,58.62
2023-01-21T12:59:53.902Z,58.29
2023-01-21T13:02:52.847Z,58.17
2023-01-21T13:05:44.407Z,57.74
2023-01-21T13:08:38.149Z,57.77
2023-01-21T13:11:30.659Z,57.26
2023-01-21T13:14:04.625Z,55.48
2023-01-21T13:16:33.464Z,53.91
2023-01-21T13:19:00.726Z,53.01
2023-01-21T13:21:49.451Z,49.97
2023-01-21T13:24:29.685Z,47.41
2023-01-21T13:27:44.745Z,48.86
2023-01-21T13:30:43.751Z,49.21
2023-01-21T13:33:31.345Z,47.62
2023-01-21T13:36:32.887Z,48.76
2023-01-21T13:39:12.096Z,48.29
2023-01-21T13:41:59.985Z,45.37
2023-01-21T13:44:54.834Z,45.27
2023-01-21T13:47:37.012Z,43.44
2023-01-21T13:50:21.773Z,41.24
2023-01-21T13:53:00.430Z,40.08
2023-01-21T13:55:36.249Z,41.99
2023-01-21T13:58:15.841Z,41.93
2023-01-21T14:01:05.914Z,42.26
2023-01-21T14:03:45.144Z,39.98
2023-01-21T14:06:49.658Z,38.22
2023-01-21T14:09:27.474Z,38.43
2023-01-21T14:12:01.949Z,40.78
2023-01-21T14:14:47.023Z,44.04
2023-01-21T14:17:23.596Z,45.89
2023-01-21T14:20:25.683Z,48.00
2023-01-21T14:23:15.308Z,50.01
2023-01-21T14:25:41.796Z,50.61
2023-01-21T14:28:29.689Z,51.03
2023-01-21T14:31:06.905Z,51.71
2023-01-21T14:34:06.013Z,52.31
2023-01-21T14:36:59.676Z,52.75
2023-01-21T14:39:26.154Z,53.91
2023-01-21T14:42:05.110Z,54.17
2023-01-21T14:44:42.690Z,54.58
2023-01-21T14:47:14.722Z,54.57
2023-01-21T14:49:47.560Z,54.39
2023-01-21T14:52:27.896Z,54.07
2023-01-21T14:54:54.771Z,54.01
2023-01-21T14:57:26.568Z,54.23
2023-01-21T15:00:01.267Z,54.62
2023-01-21T15:02:34.246Z,55.00
2023-01-21T15:05:10.054Z,55.26
2023-01-21T15:07:43.220Z,55.96
2023-01-21T15:10:20.012Z,55.63
2023-01-21T15:12:53.862Z,55.65
2023-01-21T15:15:36.985Z,55.71
2023-01-21T15:18:09.685Z,55.83
2023-01-21T15:20:42.221Z,56.47
2023-01-21T15:23:17.953Z,56.41
2023-01-21T15:26:11.147Z,56.56
2023-01-21T15:28:48.765Z,57.10
2023-01-21T15:31:21.592Z,56.33
2023-01-21T15:33:49.731Z,56.48
2023-01-21T15:36:26.912Z,57.01
2023-01-21T15:39:00.751Z,56.88
2023-01-21T15:41:48.449Z,57.71
2023-01-21T15:44:27.942Z,57.38
2023-01-21T15:46:54.448Z,57.67
2023-01-21T15:49:43.537Z,57.03
2023-01-21T15:53:04.320Z,56.76
2023-01-21T15:55:47.762Z,58.01
2023-01-21T15:58:29.629Z,57.59
2023-01-21T16:01:07.654Z,57.97
2023-01-21T16:03:55.038Z,58.49
2023-01-21T16:06:40.309Z,58.02
2023-01-21T16:09:09.201Z,58.58
2023-01-21T16:12:04.132Z,58.37
2023-01-21T16:15:05.899Z,59.12
2023-01-21T16:17:44.623Z,58.59
2023-01-21T16:20:23.231Z,58.99
2023-01-21T16:22:53.835Z,58.75
2023-01-21T16:25:24.945Z,58.86
2023-01-21T16:27:54.034Z,58.80
2023-01-21T16:30:37.541Z,58.94
2023-01-21T16:33:13.551Z,59.06
2023-01-21T16:35:46.556Z,58.72
2023-01-21T16:38:24.828Z,59.36
2023-01-21T16:41:15.607Z,58.60
2023-01-21T16:43:54.102Z,58.68
2023-01-21T16:46:25.506Z,58.72
2023-01-21T16:48:57.258Z,58.72
2023-01-21T16:51:29.554Z,58.56
2023-01-21T16:54:24.257Z,58.09
2023-01-21T16:57:00.785Z,58.51
2023-01-21T16:59:44.910Z,58.01
2023-01-21T17:02:22.618Z,59.36
2023-01-21T17:04:49.550Z,58.89
2023-01-21T17:07:30.413Z,58.30
2023-01-21T17:10:08.011Z,58.96
2023-01-21T17:12:36.435Z,58.66
2023-01-21T17:15:16.492Z,58.81
2023-01-21T17:17:46.015Z,58.53
2023-01-21T17:20:34.359Z,58.79
2023-01-21T17:23:16.681Z,58.87
2023-01-21T17:25:43.861Z,59.01
2023-01-21T17:28:28.691Z,58.59
2023-01-21T17:31:14.072Z,58.25
2023-01-21T17:33:41.403Z,59.31
2023-01-21T17:36:11.894Z,58.60
2023-01-21T17:38:40.979Z,58.93
2023-01-21T17:41:09.707Z,58.78
2023-01-21T17:43:39.179Z,58.40
2023-01-21T17:46:06.646Z,57.98
2023-01-21T17:48:39.443Z,58.12
2023-01-21T17:51:09.760Z,58.51
2023-01-21T17:53:55.796Z,58.09
2023-01-21T17:56:50.500Z,57.70
2023-01-21T17:59:55.884Z,58.43
2023-01-21T18:02:24.416Z,58.01
2023-01-21T18:04:51.139Z,57.86
2023-01-21T18:07:20.646Z,58.07
2023-01-21T18:10:05.331Z,57.85
2023-01-21T18:12:38.035Z,58.76
2023-01-21T18:15:36.349Z,59.07
2023-01-21T18:18:04.067Z,58.25
2023-01-21T18:20:30.849Z,58.71
2023-01-21T18:23:16.415Z,58.00
2023-01-21T18:26:50.404Z,58.63
2023-01-21T18:29:30.738Z,58.71
2023-01-21T18:31:58.532Z,58.55
2023-01-21T18:34:25.545Z,58.48
2023-01-21T18:36:52.113Z,58.80
2023-01-21T18:39:19.919Z,58.77
2023-01-21T18:41:46.726Z,58.33
2023-01-21T18:44:14.051Z,58.19
2023-01-21T18:46:43.673Z,58.18
2023-01-21T18:49:19.002Z,58.59
2023-01-21T18:51:46.751Z,58.38
2023-01-21T18:54:14.391Z,58.25
2023-01-21T18:56:42.435Z,58.11
2023-01-21T18:59:15.220Z,58.72
2023-01-21T19:01:46.284Z,58.03
2023-01-21T19:04:18.932Z,57.89
2023-01-21T19:06:50.500Z,58.34
2023-01-21T19:09:20.865Z,58.25
2023-01-21T19:11:48.051Z,57.74
2023-01-21T19:14:14.751Z,57.87
2023-01-21T19:16:42.739Z,57.54
2023-01-21T19:19:19.015Z,58.65
2023-01-21T19:21:46.284Z,57.34
2023-01-21T19:24:12.752Z,57.29
2023-01-21T19:26:39.495Z,57.47
2023-01-21T19:29:13.473Z,58.04
2023-01-21T19:31:40.137Z,58.13
2023-01-21T19:34:06.678Z,57.56
2023-01-21T19:36:33.117Z,57.66
2023-01-21T19:39:01.389Z,57.28
2023-01-21T19:41:27.978Z,57.44
2023-01-21T19:43:54.527Z,57.53
2023-01-21T19:46:23.810Z,57.74
2023-01-21T19:48:53.342Z,57.61
2023-01-21T19:51:19.953Z,56.59
2023-01-21T19:53:46.518Z,57.54
2023-01-21T19:56:16.782Z,56.74
2023-01-21T19:58:46.884Z,56.55
2023-01-21T20:01:16.057Z,57.36
2023-01-21T20:03:54.583Z,57.53
2023-01-21T20:06:26.779Z,56.78
2023-01-21T20:08:53.663Z,57.09
2023-01-21T20:11:20.491Z,57.09
2023-01-21T20:13:47.259Z,56.85
2023-01-21T20:16:20.999Z,56.78
2023-01-21T20:18:49.430Z,56.67
2023-01-21T20:21:16.157Z,56.43
2023-01-21T20:23:42.734Z,56.01
2023-01-21T20:26:16.520Z,56.39
2023-01-21T20:28:47.802Z,56.13
2023-01-21T20:31:14.577Z,56.06
2023-01-21T20:33:43.816Z,55.59
2023-01-21T20:36:19.175Z,57.27
2023-01-21T20:38:45.970Z,55.97
2023-01-21T20:41:14.329Z,55.90
2023-01-21T20:43:52.335Z,55.61
2023-01-21T20:46:29.845Z,56.30
2023-01-21T20:48:57.705Z,56.68
2023-01-21T20:51:25.355Z,56.34
2023-01-21T20:53:52.101Z,56.56
2023-01-21T20:56:26.638Z,56.79
2023-01-21T20:59:02.550Z,57.01
2023-01-21T21:01:34.953Z,57.10
2023-01-21T21:04:01.825Z,57.56
2023-01-21T21:06:31.145Z,57.40
2023-01-21T21:08:57.942Z,58.07
2023-01-21T21:11:24.738Z,57.60
2023-01-21T21:13:52.421Z,57.25
2023-01-21T21:16:27.613Z,57.54
2023-01-21T21:18:54.290Z,57.59
2023-01-21T21:21:23.584Z,57.45
2023-01-21T21:23:51.621Z,57.45
2023-01-21T21:26:26.603Z,58.06
2023-01-21T21:28:55.005Z,57.88
2023-01-21T21:31:22.410Z,57.53
2023-01-21T21:33:49.215Z,57.79
2023-01-21T21:36:20.864Z,57.27
2023-01-21T21:38:48.229Z,58.39
2023-01-21T21:41:35.873Z,58.84
2023-01-21T21:44:02.998Z,60.03
2023-01-21T21:46:50.248Z,61.24
2023-01-21T21:49:16.799Z,61.98
2023-01-21T21:51:45.615Z,62.07
2023-01-21T21:54:14.957Z,61.46
2023-01-21T21:56:42.469Z,62.21
2023-01-21T21:59:09.023Z,62.13
2023-01-21T22:01:35.997Z,62.21
2023-01-21T22:04:03.600Z,62.42
2023-01-21T22:06:31.050Z,62.10
2023-01-21T22:09:00.977Z,61.78
2023-01-21T22:11:28.558Z,61.56
2023-01-21T22:13:56.167Z,61.58
2023-01-21T22:16:25.944Z,61.43
2023-01-21T22:18:52.674Z,60.51
2023-01-21T22:21:21.679Z,60.42
2023-01-21T22:23:49.321Z,60.35
2023-01-21T22:26:18.817Z,60.11
2023-01-21T22:28:45.784Z,59.83
2023-01-21T22:31:32.312Z,59.53
2023-01-21T22:33:59.645Z,59.94
2023-01-21T22:36:29.648Z,59.61
2023-01-21T22:38:56.264Z,59.34
2023-01-21T22:41:24.133Z,60.15
2023-01-21T22:43:51.400Z,60.88
2023-01-21T22:46:24.089Z,60.85
2023-01-21T22:48:51.372Z,60.69
2023-01-21T22:51:19.518Z,60.71
2023-01-21T22:53:46.151Z,60.82
2023-01-21T22:56:15.110Z,61.07
2023-01-21T22:58:42.531Z,60.86
